sensor_id;sensor_type;location;lat;lon;timestamp;pressure;altitude;pressure_sealevel;temperature;humidity
44359;BME280;30077;52.474;13.326;2023-03-04T00:00:26;101182.53;;;1.68;100.00
44359;BME280;30077;52.474;13.326;2023-03-04T00:05:26;101182.53;;;1.68;100.00
44359;BME280;30077;52.474;13.326;2023-03-04T00:10:26;101179.88;;;1.66;100.00
44359;BME280;30077;52.474;13.326;2023-03-04T00:15:27;101179.88;;;1.69;100.00
44359;BME280;30077;52.474;13.326;2023-03-04T00:20:27;101178.13;;;1.79;100.00
44359;BME280;30077;52.474;13.326;2023-03-04T00:25:27;101164.94;;;1.91;100.00
44359;BME280;30077;52.474;13.326;2023-03-04T00:30:27;101163.16;;;2.06;100.00
44359;BME280;30077;52.474;13.326;2023-03-04T00:35:27;101145.59;;;2.12;100.00
44359;BME280;30077;52.474;13.326;2023-03-04T00:40:28;101166.63;;;2.23;100.00
44359;BME280;30077;52.474;13.326;2023-03-04T00:45:28;101161.38;;;2.23;100.00
44359;BME280;30077;52.474;13.326;2023-03-04T00:50:28;101164.91;;;2.19;100.00
44359;BME280;30077;52.474;13.326;2023-03-04T00:55:29;101149.97;;;2.26;100.00
44359;BME280;30077;52.474;13.326;2023-03-04T01:00:29;101151.69;;;2.28;100.00
44359;BME280;30077;52.474;13.326;2023-03-04T01:05:29;101140.31;;;2.26;100.00
44359;BME280;30077;52.474;13.326;2023-03-04T01:10:31;101142.03;;;2.30;100.00
44359;BME280;30077;52.474;13.326;2023-03-04T01:15:31;101142.03;;;2.30;100.00
44359;BME280;30077;52.474;13.326;2023-03-04T01:20:31;101138.50;;;2.34;100.00
44359;BME280;30077;52.474;13.326;2023-03-04T01:25:31;101127.13;;;2.34;100.00
44359;BME280;30077;52.474;13.326;2023-03-04T01:30:32;101120.97;;;2.36;100.00
44359;BME280;30077;52.474;13.326;2023-03-04T01:35:32;101117.44;;;2.34;100.00
44359;BME280;30077;52.474;13.326;2023-03-04T01:40:32;101120.91;;;2.42;100.00
44359;BME280;30077;52.474;13.326;2023-03-04T01:45:32;101103.38;;;2.41;100.00
44359;BME280;30077;52.474;13.326;2023-03-04T01:50:34;101100.72;;;2.43;100.00
44359;BME280;30077;52.474;13.326;2023-03-04T01:55:34;101089.28;;;2.55;100.00
44359;BME280;30077;52.474;13.326;2023-03-04T02:00:34;101094.50;;;2.61;100.00
44359;BME280;30077;52.474;13.326;2023-03-04T02:05:36;101087.50;;;2.57;100.00
44359;BME280;30077;52.474;13.326;2023-03-04T02:10:37;101075.16;;;2.63;100.00
44359;BME280;30077;52.474;13.326;2023-03-04T02:15:38;101082.16;;;2.69;100.00
44359;BME280;30077;52.474;13.326;2023-03-04T02:20:47;101070.69;;;2.81;100.00
44359;BME280;30077;52.474;13.326;2023-03-04T02:31:18;101064.44;;;2.89;100.00
44359;BME280;30077;52.474;13.326;2023-03-04T02:36:20;101051.22;;;2.97;100.00
44359;BME280;30077;52.474;13.326;2023-03-04T02:41:22;101039.81;;;2.94;100.00
44359;BME280;30077;52.474;13.326;2023-03-04T02:46:23;101034.53;;;2.97;100.00
44359;BME280;30077;52.474;13.326;2023-03-04T02:51:24;101024.00;;;2.97;100.00
44359;BME280;30077;52.474;13.326;2023-03-04T02:56:24;101017.75;;;3.07;100.00
44359;BME280;30077;52.474;13.326;2023-03-04T03:01:26;101023.91;;;3.09;100.00
44359;BME280;30077;52.474;13.326;2023-03-04T03:06:26;101028.28;;;3.08;100.00
44359;BME280;30077;52.474;13.326;2023-03-04T03:11:27;101031.81;;;3.07;100.00
44359;BME280;30077;52.474;13.326;2023-03-04T03:16:27;101026.50;;;3.12;100.00
44359;BME280;30077;52.474;13.326;2023-03-04T03:21:27;101027.34;;;3.17;100.00
44359;BME280;30077;52.474;13.326;2023-03-04T03:26:27;101025.53;;;3.22;100.00
44359;BME280;30077;52.474;13.326;2023-03-04T03:31:27;101011.50;;;3.20;100.00
44359;BME280;30077;52.474;13.326;2023-03-04T03:36:27;101016.78;;;3.17;100.00
44359;BME280;30077;52.474;13.326;2023-03-04T03:41:27;100999.28;;;3.10;100.00
44359;BME280;30077;52.474;13.326;2023-03-04T03:46:28;101001.03;;;3.11;100.00
44359;BME280;30077;52.474;13.326;2023-03-04T03:51:28;100990.41;;;3.20;100.00
44359;BME280;30077;52.474;13.326;2023-03-04T03:56:29;100981.63;;;3.18;100.00
44359;BME280;30077;52.474;13.326;2023-03-04T04:01:29;100979.00;;;3.18;100.00
44359;BME280;30077;52.474;13.326;2023-03-04T04:06:29;100972.81;;;3.19;100.00
44359;BME280;30077;52.474;13.326;2023-03-04T04:11:29;100981.66;;;3.17;100.00
44359;BME280;30077;52.474;13.326;2023-03-04T04:16:29;100975.50;;;3.14;100.00
44359;BME280;30077;52.474;13.326;2023-03-04T04:21:29;100978.94;;;3.24;100.00
44359;BME280;30077;52.474;13.326;2023-03-04T04:26:30;100973.59;;;3.32;100.00
44359;BME280;30077;52.474;13.326;2023-03-04T04:31:30;100972.69;;;3.33;100.00
44359;BME280;30077;52.474;13.326;2023-03-04T04:36:30;100968.28;;;3.33;100.00
44359;BME280;30077;52.474;13.326;2023-03-04T04:41:34;100962.06;;;3.41;100.00
44359;BME280;30077;52.474;13.326;2023-03-04T04:46:35;100962.16;;;3.31;100.00
44359;BME280;30077;52.474;13.326;2023-03-04T04:51:35;100956.81;;;3.37;100.00
44359;BME280;30077;52.474;13.326;2023-03-04T04:56:36;100960.38;;;3.33;100.00
44359;BME280;30077;52.474;13.326;2023-03-04T05:01:36;100943.63;;;3.37;100.00
44359;BME280;30077;52.474;13.326;2023-03-04T05:06:36;100950.63;;;3.42;100.00
44359;BME280;30077;52.474;13.326;2023-03-04T05:11:37;100944.34;;;3.52;100.00
44359;BME280;30077;52.474;13.326;2023-03-04T05:16:37;100950.56;;;3.45;100.00
44359;BME280;30077;52.474;13.326;2023-03-04T05:21:37;100948.75;;;3.51;100.00
44359;BME280;30077;52.474;13.326;2023-03-04T05:26:37;100947.78;;;3.60;100.00
44359;BME280;30077;52.474;13.326;2023-03-04T05:31:38;100940.72;;;3.62;100.00
44359;BME280;30077;52.474;13.326;2023-03-04T05:36:38;100943.34;;;3.62;100.00
44359;BME280;30077;52.474;13.326;2023-03-04T05:41:38;100931.81;;;3.69;100.00
44359;BME280;30077;52.474;13.326;2023-03-04T05:46:38;100938.84;;;3.70;100.00
44359;BME280;30077;52.474;13.326;2023-03-04T05:51:39;100939.75;;;3.69;100.00
44359;BME280;30077;52.474;13.326;2023-03-04T05:56:39;100937.09;;;3.69;100.00
44359;BME280;30077;52.474;13.326;2023-03-04T06:01:39;100938.72;;;3.79;100.00
44359;BME280;30077;52.474;13.326;2023-03-04T06:06:39;100941.44;;;3.73;100.00
44359;BME280;30077;52.474;13.326;2023-03-04T06:11:39;100942.28;;;3.78;100.00
44359;BME280;30077;52.474;13.326;2023-03-04T06:16:40;100935.16;;;3.83;100.00
44359;BME280;30077;52.474;13.326;2023-03-04T06:21:40;100936.84;;;3.88;100.00
44359;BME280;30077;52.474;13.326;2023-03-04T06:26:40;100935.13;;;3.86;100.00
44359;BME280;30077;52.474;13.326;2023-03-04T06:31:40;100935.94;;;3.92;100.00
44359;BME280;30077;52.474;13.326;2023-03-04T06:36:41;100942.03;;;3.97;100.00
44359;BME280;30077;52.474;13.326;2023-03-04T06:41:41;100950.78;;;3.99;100.00
44359;BME280;30077;52.474;13.326;2023-03-04T06:46:41;100943.69;;;4.04;100.00
44359;BME280;30077;52.474;13.326;2023-03-04T06:51:41;100949.78;;;4.09;100.00
44359;BME280;30077;52.474;13.326;2023-03-04T06:56:41;100954.09;;;4.13;100.00
44359;BME280;30077;52.474;13.326;2023-03-04T07:01:41;100943.50;;;4.16;100.00
44359;BME280;30077;52.474;13.326;2023-03-04T07:11:51;100948.47;;;4.38;100.00
44359;BME280;30077;52.474;13.326;2023-03-04T07:16:52;100954.69;;;4.35;100.00
44359;BME280;30077;52.474;13.326;2023-03-04T07:21:52;100953.88;;;4.28;100.00
44359;BME280;30077;52.474;13.326;2023-03-04T07:26:52;100957.44;;;4.27;100.00
44359;BME280;30077;52.474;13.326;2023-03-04T07:31:52;100943.41;;;4.24;100.00
44359;BME280;30077;52.474;13.326;2023-03-04T07:36:52;100946.16;;;4.18;100.00
44359;BME280;30077;52.474;13.326;2023-03-04T07:41:53;100944.09;;;4.35;100.00
44359;BME280;30077;52.474;13.326;2023-03-04T07:46:53;100942.91;;;4.56;100.00
44359;BME280;30077;52.474;13.326;2023-03-04T07:51:53;100941.69;;;4.77;100.00
44359;BME280;30077;52.474;13.326;2023-03-04T07:56:53;100942.88;;;4.59;100.00
44359;BME280;30077;52.474;13.326;2023-03-04T08:01:53;100939.38;;;4.57;100.00
44359;BME280;30077;52.474;13.326;2023-03-04T08:06:53;100947.41;;;4.49;100.00
44359;BME280;30077;52.474;13.326;2023-03-04T08:11:54;100951.94;;;4.41;100.00
44359;BME280;30077;52.474;13.326;2023-03-04T08:16:54;100944.75;;;4.51;100.00
44359;BME280;30077;52.474;13.326;2023-03-04T08:21:54;100934.06;;;4.58;100.00
44359;BME280;30077;52.474;13.326;2023-03-04T08:26:54;100946.25;;;4.67;100.00
44359;BME280;30077;52.474;13.326;2023-03-04T08:31:54;100937.38;;;4.71;100.00
44359;BME280;30077;52.474;13.326;2023-03-04T08:36:55;100943.19;;;4.92;100.00
44359;BME280;30077;52.474;13.326;2023-03-04T08:41:55;100934.03;;;5.11;100.00
44359;BME280;30077;52.474;13.326;2023-03-04T08:46:55;100929.50;;;5.19;100.00
44359;BME280;30077;52.474;13.326;2023-03-04T08:51:55;100938.09;;;5.30;100.00
44359;BME280;30077;52.474;13.326;2023-03-04T08:56:55;100928.88;;;5.50;100.00
44359;BME280;30077;52.474;13.326;2023-03-04T09:01:55;100925.22;;;5.57;100.00
44359;BME280;30077;52.474;13.326;2023-03-04T09:06:56;100926.72;;;5.70;100.00
44359;BME280;30077;52.474;13.326;2023-03-04T09:11:56;100916.72;;;5.83;100.00
44359;BME280;30077;52.474;13.326;2023-03-04T09:16:56;100921.09;;;5.86;100.00
44359;BME280;30077;52.474;13.326;2023-03-04T09:21:56;100932.50;;;5.89;100.00
44359;BME280;30077;52.474;13.326;2023-03-04T09:26:58;100923.94;;;6.18;100.00
44359;BME280;30077;52.474;13.326;2023-03-04T09:31:58;100927.63;;;6.11;100.00
44359;BME280;30077;52.474;13.326;2023-03-04T09:36:58;100935.00;;;5.97;100.00
44359;BME280;30077;52.474;13.326;2023-03-04T09:41:59;100935.47;;;5.72;100.00
44359;BME280;30077;52.474;13.326;2023-03-04T09:47:01;100935.69;;;5.63;100.00
44359;BME280;30077;52.474;13.326;2023-03-04T09:52:20;100942.06;;;5.53;100.00
44359;BME280;30077;52.474;13.326;2023-03-04T10:02:39;100934.44;;;5.79;100.00
44359;BME280;30077;52.474;13.326;2023-03-04T10:07:44;100924.06;;;5.70;100.00
44359;BME280;30077;52.474;13.326;2023-03-04T10:12:45;100943.41;;;5.74;95.99
44359;BME280;30077;52.474;13.326;2023-03-04T10:17:48;100933.53;;;5.80;92.58
44359;BME280;30077;52.474;13.326;2023-03-04T10:22:51;100942.03;;;5.98;91.00
44359;BME280;30077;52.474;13.326;2023-03-04T10:28:02;100944.06;;;5.85;86.91
44359;BME280;30077;52.474;13.326;2023-03-04T10:33:11;100939.63;;;5.84;86.66
44359;BME280;30077;52.474;13.326;2023-03-04T10:38:11;100933.31;;;5.91;85.72
44359;BME280;30077;52.474;13.326;2023-03-04T10:43:15;100936.25;;;6.19;84.03
44359;BME280;30077;52.474;13.326;2023-03-04T10:48:23;100927.16;;;6.68;82.74
44359;BME280;30077;52.474;13.326;2023-03-04T10:53:27;100936.25;;;6.58;80.28
44359;BME280;30077;52.474;13.326;2023-03-04T10:58:28;100927.00;;;6.74;79.43
44359;BME280;30077;52.474;13.326;2023-03-04T11:03:30;100934.59;;;6.88;78.76
44359;BME280;30077;52.474;13.326;2023-03-04T11:08:30;100936.78;;;6.72;76.98
44359;BME280;30077;52.474;13.326;2023-03-04T11:13:31;100924.34;;;6.74;76.78
44359;BME280;30077;52.474;13.326;2023-03-04T11:18:40;100938.03;;;6.58;77.70
44359;BME280;30077;52.474;13.326;2023-03-04T11:23:47;100936.94;;;6.29;78.53
44359;BME280;30077;52.474;13.326;2023-03-04T11:38:52;100952.81;;;5.89;79.48
44359;BME280;30077;52.474;13.326;2023-03-04T11:43:52;100956.88;;;6.05;79.24
44359;BME280;30077;52.474;13.326;2023-03-04T12:04:23;100937.22;;;6.54;76.34
44359;BME280;30077;52.474;13.326;2023-03-04T12:15:08;100945.50;;;6.40;76.10
44359;BME280;30077;52.474;13.326;2023-03-04T12:30:40;100932.06;;;6.48;75.52
44359;BME280;30077;52.474;13.326;2023-03-04T12:51:05;100933.66;;;6.18;75.02
44359;BME280;30077;52.474;13.326;2023-03-04T12:56:08;100950.81;;;6.39;74.37
44359;BME280;30077;52.474;13.326;2023-03-04T13:01:17;100940.50;;;6.26;72.70
44359;BME280;30077;52.474;13.326;2023-03-04T13:17:00;100934.66;;;6.12;73.68
44359;BME280;30077;52.474;13.326;2023-03-04T13:22:01;100933.72;;;6.15;73.00
44359;BME280;30077;52.474;13.326;2023-03-04T13:27:01;100937.41;;;6.46;73.00
44359;BME280;30077;52.474;13.326;2023-03-04T13:32:34;100940.88;;;6.50;71.64
44359;BME280;30077;52.474;13.326;2023-03-04T13:37:35;100923.78;;;6.62;72.28
44359;BME280;30077;52.474;13.326;2023-03-04T13:42:37;100937.50;;;6.42;72.31
44359;BME280;30077;52.474;13.326;2023-03-04T13:47:42;100934.22;;;6.31;72.86
44359;BME280;30077;52.474;13.326;2023-03-04T13:52:42;100950.44;;;6.18;71.25
44359;BME280;30077;52.474;13.326;2023-03-04T13:57:52;100943.53;;;6.10;71.97
44359;BME280;30077;52.474;13.326;2023-03-04T14:02:52;100938.09;;;6.17;71.26
44359;BME280;30077;52.474;13.326;2023-03-04T14:07:52;100924.75;;;6.22;70.20
44359;BME280;30077;52.474;13.326;2023-03-04T14:12:53;100936.41;;;6.13;70.64
44359;BME280;30077;52.474;13.326;2023-03-04T14:17:58;100932.50;;;5.89;71.75
44359;BME280;30077;52.474;13.326;2023-03-04T14:22:59;100924.19;;;6.06;71.94
44359;BME280;30077;52.474;13.326;2023-03-04T14:28:13;100923.06;;;6.18;69.33
44359;BME280;30077;52.474;13.326;2023-03-04T14:33:17;100934.41;;;5.83;70.64
44359;BME280;30077;52.474;13.326;2023-03-04T14:38:25;100944.00;;;5.87;69.81
44359;BME280;30077;52.474;13.326;2023-03-04T14:43:26;100923.81;;;5.83;70.03
44359;BME280;30077;52.474;13.326;2023-03-04T14:48:29;100926.50;;;5.79;70.48
44359;BME280;30077;52.474;13.326;2023-03-04T14:53:31;100917.88;;;5.71;70.78
44359;BME280;30077;52.474;13.326;2023-03-04T14:58:35;100930.69;;;5.48;70.81
44359;BME280;30077;52.474;13.326;2023-03-04T15:03:35;100928.88;;;5.50;69.83
44359;BME280;30077;52.474;13.326;2023-03-04T15:08:36;100929.06;;;5.41;70.33
44359;BME280;30077;52.474;13.326;2023-03-04T15:13:41;100930.81;;;5.42;70.62
44359;BME280;30077;52.474;13.326;2023-03-04T15:19:01;100941.56;;;5.32;70.17
44359;BME280;30077;52.474;13.326;2023-03-04T15:24:03;100927.16;;;5.47;70.24
44359;BME280;30077;52.474;13.326;2023-03-04T15:29:09;100936.22;;;5.36;70.58
44359;BME280;30077;52.474;13.326;2023-03-04T15:34:12;100927.53;;;5.30;70.92
44359;BME280;30077;52.474;13.326;2023-03-04T15:39:13;100921.22;;;5.38;71.66
44359;BME280;30077;52.474;13.326;2023-03-04T15:44:14;100915.31;;;5.23;72.61
44359;BME280;30077;52.474;13.326;2023-03-04T15:49:14;100903.25;;;5.09;73.41
44359;BME280;30077;52.474;13.326;2023-03-04T15:54:14;100908.66;;;5.01;73.50
44359;BME280;30077;52.474;13.326;2023-03-04T15:59:15;100894.72;;;4.93;73.46
44359;BME280;30077;52.474;13.326;2023-03-04T16:04:16;100896.38;;;4.97;72.52
44359;BME280;30077;52.474;13.326;2023-03-04T16:09:16;100896.34;;;5.01;72.54
44359;BME280;30077;52.474;13.326;2023-03-04T16:14:18;100906.75;;;5.09;71.24
44359;BME280;30077;52.474;13.326;2023-03-04T16:19:18;100903.50;;;4.95;71.03
44359;BME280;30077;52.474;13.326;2023-03-04T16:24:19;100907.09;;;4.91;71.13
44359;BME280;30077;52.474;13.326;2023-03-04T16:29:19;100898.22;;;4.95;71.28
44359;BME280;30077;52.474;13.326;2023-03-04T16:34:20;100901.72;;;4.94;71.64
44359;BME280;30077;52.474;13.326;2023-03-04T16:39:21;100903.44;;;4.98;71.46
44359;BME280;30077;52.474;13.326;2023-03-04T16:44:21;100899.91;;;4.97;70.96
44359;BME280;30077;52.474;13.326;2023-03-04T16:49:21;100907.09;;;4.91;70.87
44359;BME280;30077;52.474;13.326;2023-03-04T16:54:24;100904.66;;;4.80;71.16
44359;BME280;30077;52.474;13.326;2023-03-04T16:59:27;100919.63;;;4.79;71.56
44359;BME280;30077;52.474;13.326;2023-03-04T17:04:27;100919.69;;;4.76;71.34
44359;BME280;30077;52.474;13.326;2023-03-04T17:09:27;100923.19;;;4.75;71.78
44359;BME280;30077;52.474;13.326;2023-03-04T17:14:27;100918.81;;;4.76;72.04
44359;BME280;30077;52.474;13.326;2023-03-04T17:19:28;100917.09;;;4.72;72.11
44359;BME280;30077;52.474;13.326;2023-03-04T17:24:28;100932.13;;;4.68;72.37
44359;BME280;30077;52.474;13.326;2023-03-04T17:29:29;100933.94;;;4.66;72.93
44359;BME280;30077;52.474;13.326;2023-03-04T17:34:29;100940.06;;;4.68;72.83
44359;BME280;30077;52.474;13.326;2023-03-04T17:39:29;100942.78;;;4.65;73.22
44359;BME280;30077;52.474;13.326;2023-03-04T17:44:30;100944.56;;;4.63;73.91
44359;BME280;30077;52.474;13.326;2023-03-04T17:49:30;100944.56;;;4.63;74.90
44359;BME280;30077;52.474;13.326;2023-03-04T17:54:30;100943.69;;;4.63;75.25
44359;BME280;30077;52.474;13.326;2023-03-04T17:59:30;100945.47;;;4.62;75.83
44359;BME280;30077;52.474;13.326;2023-03-04T18:04:30;100943.72;;;4.59;76.31
44359;BME280;30077;52.474;13.326;2023-03-04T18:09:31;100941.22;;;4.52;77.10
44359;BME280;30077;52.474;13.326;2023-03-04T18:14:31;100934.06;;;4.57;77.03
44359;BME280;30077;52.474;13.326;2023-03-04T18:19:31;100937.72;;;4.50;77.65
44359;BME280;30077;52.474;13.326;2023-03-04T18:24:31;100936.03;;;4.46;78.14
44359;BME280;30077;52.474;13.326;2023-03-04T18:29:31;100925.56;;;4.40;78.72
44359;BME280;30077;52.474;13.326;2023-03-04T18:34:33;100930.03;;;4.36;79.12
44359;BME280;30077;52.474;13.326;2023-03-04T18:39:33;100932.75;;;4.28;79.79
44359;BME280;30077;52.474;13.326;2023-03-04T18:44:33;100932.75;;;4.28;79.72
44359;BME280;30077;52.474;13.326;2023-03-04T18:49:33;100925.75;;;4.27;80.03
44359;BME280;30077;52.474;13.326;2023-03-04T18:54:33;100927.47;;;4.28;79.85
44359;BME280;30077;52.474;13.326;2023-03-04T18:59:35;100938.94;;;4.27;80.32
44359;BME280;30077;52.474;13.326;2023-03-04T19:04:38;100934.53;;;4.28;80.25
44359;BME280;30077;52.474;13.326;2023-03-04T19:09:41;100935.34;;;4.31;80.71
44359;BME280;30077;52.474;13.326;2023-03-04T19:14:43;100941.59;;;4.27;80.55
44359;BME280;30077;52.474;13.326;2023-03-04T19:19:43;100938.06;;;4.27;80.90
44359;BME280;30077;52.474;13.326;2023-03-04T19:24:44;100939.84;;;4.26;80.93
44359;BME280;30077;52.474;13.326;2023-03-04T19:29:44;100933.63;;;4.30;81.32
44359;BME280;30077;52.474;13.326;2023-03-04T19:34:45;100932.88;;;4.22;81.85
44359;BME280;30077;52.474;13.326;2023-03-04T19:39:45;100939.81;;;4.29;82.20
44359;BME280;30077;52.474;13.326;2023-03-04T19:44:47;100933.81;;;4.17;82.69
44359;BME280;30077;52.474;13.326;2023-03-04T19:49:48;100938.25;;;4.15;83.38
44359;BME280;30077;52.474;13.326;2023-03-04T19:54:48;100936.41;;;4.20;83.04
44359;BME280;30077;52.474;13.326;2023-03-04T19:59:48;100932.13;;;4.14;82.74
44359;BME280;30077;52.474;13.326;2023-03-04T20:04:49;100933.06;;;4.08;82.55
44359;BME280;30077;52.474;13.326;2023-03-04T20:09:49;100936.66;;;4.04;82.71
44359;BME280;30077;52.474;13.326;2023-03-04T20:14:51;100950.69;;;4.08;82.41
44359;BME280;30077;52.474;13.326;2023-03-04T20:19:51;100948.09;;;4.03;82.52
44359;BME280;30077;52.474;13.326;2023-03-04T20:24:51;100947.28;;;4.00;82.72
44359;BME280;30077;52.474;13.326;2023-03-04T20:29:54;100946.38;;;3.99;82.52
44359;BME280;30077;52.474;13.326;2023-03-04T20:34:55;100949.94;;;3.97;82.59
44359;BME280;30077;52.474;13.326;2023-03-04T20:39:57;100954.31;;;3.98;83.17
44359;BME280;30077;52.474;13.326;2023-03-04T20:44:57;100952.59;;;3.95;83.60
44359;BME280;30077;52.474;13.326;2023-03-04T20:49:57;100954.47;;;3.89;84.06
44359;BME280;30077;52.474;13.326;2023-03-04T20:54:57;100951.81;;;3.89;84.26
44359;BME280;30077;52.474;13.326;2023-03-04T20:59:58;100951.91;;;3.81;84.85
44359;BME280;30077;52.474;13.326;2023-03-04T21:04:58;100953.69;;;3.79;85.41
44359;BME280;30077;52.474;13.326;2023-03-04T21:10:00;100941.41;;;3.78;84.95
44359;BME280;30077;52.474;13.326;2023-03-04T21:15:01;100938.84;;;3.70;85.33
44359;BME280;30077;52.474;13.326;2023-03-04T21:20:01;100932.72;;;3.68;85.73
44359;BME280;30077;52.474;13.326;2023-03-04T21:25:01;100934.47;;;3.69;85.70
44359;BME280;30077;52.474;13.326;2023-03-04T21:30:01;100941.50;;;3.69;85.33
44359;BME280;30077;52.474;13.326;2023-03-04T21:35:01;100917.72;;;3.70;86.38
44359;BME280;30077;52.474;13.326;2023-03-04T21:40:02;100931.81;;;3.69;86.25
44359;BME280;30077;52.474;13.326;2023-03-04T21:45:03;100942.34;;;3.72;86.05
44359;BME280;30077;52.474;13.326;2023-03-04T21:50:03;100924.66;;;3.77;85.43
44359;BME280;30077;52.474;13.326;2023-03-04T21:55:04;100919.53;;;3.68;85.25
44359;BME280;30077;52.474;13.326;2023-03-04T22:00:04;100909.06;;;3.59;85.63
44359;BME280;30077;52.474;13.326;2023-03-04T22:05:05;100902.13;;;3.52;86.19
44359;BME280;30077;52.474;13.326;2023-03-04T22:10:05;100902.09;;;3.55;85.83
44359;BME280;30077;52.474;13.326;2023-03-04T22:15:05;100896.00;;;3.51;85.55
44359;BME280;30077;52.474;13.326;2023-03-04T22:20:06;100896.03;;;3.50;85.52
44359;BME280;30077;52.474;13.326;2023-03-04T22:25:06;100884.59;;;3.48;86.54
44359;BME280;30077;52.474;13.326;2023-03-04T22:30:07;100894.28;;;3.47;85.36
44359;BME280;30077;52.474;13.326;2023-03-04T22:35:08;100892.47;;;3.51;85.49
44359;BME280;30077;52.474;13.326;2023-03-04T22:40:09;100886.38;;;3.49;85.42
44359;BME280;30077;52.474;13.326;2023-03-04T22:45:10;100874.94;;;3.47;86.10
44359;BME280;30077;52.474;13.326;2023-03-04T22:50:11;100879.31;;;3.48;85.86
44359;BME280;30077;52.474;13.326;2023-03-04T22:55:12;100865.31;;;3.46;86.23
44359;BME280;30077;52.474;13.326;2023-03-04T23:00:15;100860.00;;;3.49;86.31
44359;BME280;30077;52.474;13.326;2023-03-04T23:05:16;100855.59;;;3.48;87.36
44359;BME280;30077;52.474;13.326;2023-03-04T23:10:19;100855.59;;;3.49;88.35
44359;BME280;30077;52.474;13.326;2023-03-04T23:15:19;100847.69;;;3.48;89.59
44359;BME280;30077;52.474;13.326;2023-03-04T23:20:20;100844.25;;;3.43;91.36
44359;BME280;30077;52.474;13.326;2023-03-04T23:25:20;100836.41;;;3.36;92.69
44359;BME280;30077;52.474;13.326;2023-03-04T23:30:21;100835.38;;;3.47;93.16
44359;BME280;30077;52.474;13.326;2023-03-04T23:35:21;100831.81;;;3.51;93.38
44359;BME280;30077;52.474;13.326;2023-03-04T23:40:21;100827.44;;;3.48;93.88
44359;BME280;30077;52.474;13.326;2023-03-04T23:45:21;100828.41;;;3.43;94.48
44359;BME280;30077;52.474;13.326;2023-03-04T23:50:21;100823.09;;;3.46;95.19
44359;BME280;30077;52.474;13.326;2023-03-04T23:55:21;100823.06;;;3.49;97.13
